sensor_id;sensor_type;location;lat;lon;timestamp;pressure;altitude;pressure_sealevel;temperature;humidity
30110;BME280;14965;50.660;13.226;2022-11-28T00:01:34;95062.59;;;-0.02;100.00
30110;BME280;14965;50.660;13.226;2022-11-28T00:04:00;95051.81;;;0.02;100.00
30110;BME280;14965;50.660;13.226;2022-11-28T00:06:28;95059.22;;;0.05;100.00
30110;BME280;14965;50.660;13.226;2022-11-28T00:08:56;95048.41;;;0.09;100.00
30110;BME280;14965;50.660;13.226;2022-11-28T00:11:22;95052.38;;;0.15;100.00
30110;BME280;14965;50.660;13.226;2022-11-28T00:13:48;95040.41;;;0.19;99.25
30110;BME280;14965;50.660;13.226;2022-11-28T00:16:17;95034.66;;;0.24;98.23
30110;BME280;14965;50.660;13.226;2022-11-28T00:18:43;95037.47;;;0.32;98.14
30110;BME280;14965;50.660;13.226;2022-11-28T00:21:10;95040.97;;;0.32;97.43
30110;BME280;14965;50.660;13.226;2022-11-28T00:23:38;95028.94;;;0.33;96.74
30110;BME280;14965;50.660;13.226;2022-11-28T00:26:09;95032.47;;;0.37;96.06
30110;BME280;14965;50.660;13.226;2022-11-28T00:28:35;95036.06;;;0.45;96.09
30110;BME280;14965;50.660;13.226;2022-11-28T00:31:01;95023.19;;;0.38;95.96
30110;BME280;14965;50.660;13.226;2022-11-28T00:33:28;95023.97;;;0.39;95.58
30110;BME280;14965;50.660;13.226;2022-11-28T00:35:57;95024.47;;;0.48;95.35
30110;BME280;14965;50.660;13.226;2022-11-28T00:38:23;95022.53;;;0.48;95.18
30110;BME280;14965;50.660;13.226;2022-11-28T00:40:58;95024.03;;;0.46;95.29
30110;BME280;14965;50.660;13.226;2022-11-28T00:43:24;95022.88;;;0.43;95.57
30110;BME280;14965;50.660;13.226;2022-11-28T00:45:50;95018.53;;;0.39;95.72
30110;BME280;14965;50.660;13.226;2022-11-28T00:48:15;95013.50;;;0.41;95.61
30110;BME280;14965;50.660;13.226;2022-11-28T00:50:41;95008.13;;;0.44;95.45
30110;BME280;14965;50.660;13.226;2022-11-28T00:53:07;95012.78;;;0.44;95.24
30110;BME280;14965;50.660;13.226;2022-11-28T00:55:33;95000.69;;;0.38;94.98
30110;BME280;14965;50.660;13.226;2022-11-28T00:58:00;94991.44;;;0.46;94.78
30110;BME280;14965;50.660;13.226;2022-11-28T01:00:25;94997.69;;;0.50;94.51
30110;BME280;14965;50.660;13.226;2022-11-28T01:02:52;94991.44;;;0.42;94.79
30110;BME280;14965;50.660;13.226;2022-11-28T01:05:17;95004.63;;;0.44;95.04
30110;BME280;14965;50.660;13.226;2022-11-28T01:07:43;94999.59;;;0.46;94.75
30110;BME280;14965;50.660;13.226;2022-11-28T01:10:10;95005.50;;;0.52;93.71
30110;BME280;14965;50.660;13.226;2022-11-28T01:12:36;94990.38;;;0.54;93.46
30110;BME280;14965;50.660;13.226;2022-11-28T01:15:04;94999.34;;;0.58;93.40
30110;BME280;14965;50.660;13.226;2022-11-28T01:17:30;94988.94;;;0.64;92.97
30110;BME280;14965;50.660;13.226;2022-11-28T01:19:56;94986.19;;;0.60;91.70
30110;BME280;14965;50.660;13.226;2022-11-28T01:22:22;94992.78;;;0.59;92.16
30110;BME280;14965;50.660;13.226;2022-11-28T01:24:48;94980.31;;;0.55;92.10
30110;BME280;14965;50.660;13.226;2022-11-28T01:27:13;94977.59;;;0.58;92.27
30110;BME280;14965;50.660;13.226;2022-11-28T01:29:39;94986.53;;;0.55;92.21
30110;BME280;14965;50.660;13.226;2022-11-28T01:32:06;94975.53;;;0.44;92.32
30110;BME280;14965;50.660;13.226;2022-11-28T01:34:32;94969.31;;;0.44;92.22
30110;BME280;14965;50.660;13.226;2022-11-28T01:36:58;94965.44;;;0.45;92.77
30110;BME280;14965;50.660;13.226;2022-11-28T01:39:24;94967.66;;;0.36;93.55
30110;BME280;14965;50.660;13.226;2022-11-28T01:41:49;94954.41;;;0.31;93.08
30110;BME280;14965;50.660;13.226;2022-11-28T01:47:24;94942.28;;;0.21;93.43
30110;BME280;14965;50.660;13.226;2022-11-28T01:49:53;94933.66;;;0.15;93.09
30110;BME280;14965;50.660;13.226;2022-11-28T01:52:20;94943.38;;;0.16;92.61
30110;BME280;14965;50.660;13.226;2022-11-28T01:54:49;94940.63;;;0.13;92.42
30110;BME280;14965;50.660;13.226;2022-11-28T01:57:18;94934.13;;;0.21;91.78
30110;BME280;14965;50.660;13.226;2022-11-28T01:59:49;94931.13;;;0.30;91.19
30110;BME280;14965;50.660;13.226;2022-11-28T02:02:19;94930.34;;;0.33;90.77
30110;BME280;14965;50.660;13.226;2022-11-28T02:04:49;94930.84;;;0.38;90.38
30110;BME280;14965;50.660;13.226;2022-11-28T02:07:15;94934.00;;;0.44;89.41
30110;BME280;14965;50.660;13.226;2022-11-28T02:09:41;94934.03;;;0.47;89.52
30110;BME280;14965;50.660;13.226;2022-11-28T02:12:18;94929.81;;;0.54;89.72
30110;BME280;14965;50.660;13.226;2022-11-28T02:15:01;94925.97;;;0.55;88.84
30110;BME280;14965;50.660;13.226;2022-11-28T02:17:43;94923.63;;;0.57;89.20
30110;BME280;14965;50.660;13.226;2022-11-28T02:20:39;94915.53;;;0.60;88.64
30110;BME280;14965;50.660;13.226;2022-11-28T02:23:13;94913.16;;;0.55;88.43
30110;BME280;14965;50.660;13.226;2022-11-28T02:25:59;94906.13;;;0.54;87.65
30110;BME280;14965;50.660;13.226;2022-11-28T02:29:01;94898.41;;;0.56;87.62
30110;BME280;14965;50.660;13.226;2022-11-28T02:31:59;94898.47;;;0.63;87.32
30110;BME280;14965;50.660;13.226;2022-11-28T02:34:34;94899.31;;;0.67;87.58
30110;BME280;14965;50.660;13.226;2022-11-28T02:37:07;94898.47;;;0.63;86.31
30110;BME280;14965;50.660;13.226;2022-11-28T02:39:39;94895.00;;;0.63;87.02
30110;BME280;14965;50.660;13.226;2022-11-28T02:42:13;94893.78;;;0.60;86.98
30110;BME280;14965;50.660;13.226;2022-11-28T02:44:44;94892.97;;;0.56;87.32
30110;BME280;14965;50.660;13.226;2022-11-28T02:47:19;94896.81;;;0.52;88.19
30110;BME280;14965;50.660;13.226;2022-11-28T02:49:51;94883.91;;;0.45;88.61
30110;BME280;14965;50.660;13.226;2022-11-28T02:52:26;94884.25;;;0.40;89.34
30110;BME280;14965;50.660;13.226;2022-11-28T02:54:54;94888.88;;;0.36;89.30
30110;BME280;14965;50.660;13.226;2022-11-28T02:57:20;94893.91;;;0.34;89.84
30110;BME280;14965;50.660;13.226;2022-11-28T02:59:47;94892.28;;;0.29;90.64
30110;BME280;14965;50.660;13.226;2022-11-28T03:02:18;94888.75;;;0.25;90.56
30110;BME280;14965;50.660;13.226;2022-11-28T03:04:52;94885.63;;;0.23;89.57
30110;BME280;14965;50.660;13.226;2022-11-28T03:07:31;94887.97;;;0.24;89.49
30110;BME280;14965;50.660;13.226;2022-11-28T03:10:08;94881.81;;;0.28;89.63
30110;BME280;14965;50.660;13.226;2022-11-28T03:12:49;94891.94;;;0.31;89.53
30110;BME280;14965;50.660;13.226;2022-11-28T03:15:19;94886.91;;;0.33;89.17
30110;BME280;14965;50.660;13.226;2022-11-28T03:17:53;94876.84;;;0.37;89.67
30110;BME280;14965;50.660;13.226;2022-11-28T03:20:29;94868.38;;;0.42;89.22
30110;BME280;14965;50.660;13.226;2022-11-28T03:23:08;94879.69;;;0.47;89.56
30110;BME280;14965;50.660;13.226;2022-11-28T03:25:43;94867.28;;;0.50;89.02
30110;BME280;14965;50.660;13.226;2022-11-28T03:28:18;94874.28;;;0.51;89.15
30110;BME280;14965;50.660;13.226;2022-11-28T03:30:49;94868.09;;;0.54;89.18
30110;BME280;14965;50.660;13.226;2022-11-28T03:33:19;94865.06;;;0.59;89.43
30110;BME280;14965;50.660;13.226;2022-11-28T03:35:50;94871.31;;;0.63;89.99
30110;BME280;14965;50.660;13.226;2022-11-28T03:38:21;94861.56;;;0.59;88.98
30110;BME280;14965;50.660;13.226;2022-11-28T03:40:50;94867.34;;;0.57;88.71
30110;BME280;14965;50.660;13.226;2022-11-28T03:43:20;94860.31;;;0.53;88.91
30110;BME280;14965;50.660;13.226;2022-11-28T03:45:48;94861.13;;;0.57;89.17
30110;BME280;14965;50.660;13.226;2022-11-28T03:48:20;94860.38;;;0.56;88.75
30110;BME280;14965;50.660;13.226;2022-11-28T03:50:52;94868.91;;;0.55;88.57
30110;BME280;14965;50.660;13.226;2022-11-28T03:53:24;94859.16;;;0.54;88.88
30110;BME280;14965;50.660;13.226;2022-11-28T03:55:56;94873.09;;;0.48;88.57
30110;BME280;14965;50.660;13.226;2022-11-28T03:58:28;94866.88;;;0.48;88.66
30110;BME280;14965;50.660;13.226;2022-11-28T04:00:59;94862.13;;;0.38;88.58
30110;BME280;14965;50.660;13.226;2022-11-28T04:03:36;94853.56;;;0.36;88.93
30110;BME280;14965;50.660;13.226;2022-11-28T04:06:12;94862.41;;;0.29;89.26
30110;BME280;14965;50.660;13.226;2022-11-28T04:08:43;94858.91;;;0.29;89.84
30110;BME280;14965;50.660;13.226;2022-11-28T04:11:14;94860.06;;;0.28;89.72
30110;BME280;14965;50.660;13.226;2022-11-28T04:13:47;94857.75;;;0.26;90.02
30110;BME280;14965;50.660;13.226;2022-11-28T04:16:20;94851.00;;;0.13;89.69
30110;BME280;14965;50.660;13.226;2022-11-28T04:18:52;94851.72;;;0.06;89.79
30110;BME280;14965;50.660;13.226;2022-11-28T04:21:24;94859.13;;;0.09;90.46
30110;BME280;14965;50.660;13.226;2022-11-28T04:23:55;94851.31;;;0.08;90.55
30110;BME280;14965;50.660;13.226;2022-11-28T04:26:28;94850.50;;;0.04;91.01
30110;BME280;14965;50.660;13.226;2022-11-28T04:28:56;94845.53;;;0.09;91.21
30110;BME280;14965;50.660;13.226;2022-11-28T04:31:25;94844.78;;;0.12;90.99
30110;BME280;14965;50.660;13.226;2022-11-28T04:33:56;94833.13;;;0.12;90.84
30110;BME280;14965;50.660;13.226;2022-11-28T04:36:24;94835.13;;;0.15;90.81
30110;BME280;14965;50.660;13.226;2022-11-28T04:38:52;94830.84;;;0.14;90.63
30110;BME280;14965;50.660;13.226;2022-11-28T04:41:21;94835.16;;;0.18;90.79
30110;BME280;14965;50.660;13.226;2022-11-28T04:43:53;94834.75;;;0.16;91.48
30110;BME280;14965;50.660;13.226;2022-11-28T04:46:24;94817.72;;;0.19;91.17
30110;BME280;14965;50.660;13.226;2022-11-28T04:48:53;94827.41;;;0.20;90.94
30110;BME280;14965;50.660;13.226;2022-11-28T04:51:21;94826.59;;;0.16;90.92
30110;BME280;14965;50.660;13.226;2022-11-28T04:53:54;94823.00;;;0.05;91.91
30110;BME280;14965;50.660;13.226;2022-11-28T04:56:27;94817.91;;;0.00;92.15
30110;BME280;14965;50.660;13.226;2022-11-28T04:58:56;94819.81;;;-0.01;92.69
30110;BME280;14965;50.660;13.226;2022-11-28T05:01:26;94824.13;;;0.01;92.80
30110;BME280;14965;50.660;13.226;2022-11-28T05:03:55;94821.06;;;0.06;92.89
30110;BME280;14965;50.660;13.226;2022-11-28T05:06:23;94811.81;;;0.10;93.15
30110;BME280;14965;50.660;13.226;2022-11-28T05:08:50;94813.34;;;0.11;92.87
30110;BME280;14965;50.660;13.226;2022-11-28T05:11:15;94810.25;;;0.09;93.28
30110;BME280;14965;50.660;13.226;2022-11-28T05:13:41;94808.59;;;0.01;93.15
30110;BME280;14965;50.660;13.226;2022-11-28T05:16:08;94802.38;;;-0.03;93.57
30110;BME280;14965;50.660;13.226;2022-11-28T05:18:34;94809.69;;;-0.07;93.68
30110;BME280;14965;50.660;13.226;2022-11-28T05:21:01;94802.97;;;-0.17;94.63
30110;BME280;14965;50.660;13.226;2022-11-28T05:23:27;94801.84;;;-0.16;94.72
30110;BME280;14965;50.660;13.226;2022-11-28T05:25:52;94806.84;;;-0.18;95.21
30110;BME280;14965;50.660;13.226;2022-11-28T05:28:18;94794.81;;;-0.20;95.19
30110;BME280;14965;50.660;13.226;2022-11-28T05:30:44;94790.94;;;-0.19;95.53
30110;BME280;14965;50.660;13.226;2022-11-28T05:33:10;94792.91;;;-0.16;95.50
30110;BME280;14965;50.660;13.226;2022-11-28T05:35:37;94790.50;;;-0.21;95.48
30110;BME280;14965;50.660;13.226;2022-11-28T05:38:05;94794.38;;;-0.22;95.43
30110;BME280;14965;50.660;13.226;2022-11-28T05:40:30;94787.34;;;-0.27;95.89
30110;BME280;14965;50.660;13.226;2022-11-28T05:42:56;94787.31;;;-0.31;95.51
30110;BME280;14965;50.660;13.226;2022-11-28T05:45:22;94788.09;;;-0.30;96.11
30110;BME280;14965;50.660;13.226;2022-11-28T05:47:48;94791.22;;;-0.28;96.26
30110;BME280;14965;50.660;13.226;2022-11-28T05:50:14;94781.16;;;-0.28;96.44
30110;BME280;14965;50.660;13.226;2022-11-28T05:52:39;94786.63;;;-0.24;97.03
30110;BME280;14965;50.660;13.226;2022-11-28T05:55:08;94795.53;;;-0.23;97.19
30110;BME280;14965;50.660;13.226;2022-11-28T05:57:33;94793.56;;;-0.27;97.02
30110;BME280;14965;50.660;13.226;2022-11-28T05:59:59;94796.72;;;-0.24;96.61
30110;BME280;14965;50.660;13.226;2022-11-28T06:02:25;94787.41;;;-0.23;97.03
30110;BME280;14965;50.660;13.226;2022-11-28T06:04:51;94792.84;;;-0.23;96.84
30110;BME280;14965;50.660;13.226;2022-11-28T06:07:16;94801.38;;;-0.21;96.57
30110;BME280;14965;50.660;13.226;2022-11-28T06:09:42;94796.31;;;-0.23;96.90
30110;BME280;14965;50.660;13.226;2022-11-28T06:12:09;94792.78;;;-0.27;96.89
30110;BME280;14965;50.660;13.226;2022-11-28T06:14:36;94792.41;;;-0.26;96.96
30110;BME280;14965;50.660;13.226;2022-11-28T06:17:02;94788.09;;;-0.30;97.11
30110;BME280;14965;50.660;13.226;2022-11-28T06:19:28;94789.69;;;-0.29;97.23
30110;BME280;14965;50.660;13.226;2022-11-28T06:21:53;94786.97;;;-0.29;97.07
30110;BME280;14965;50.660;13.226;2022-11-28T06:24:19;94781.84;;;-0.34;97.29
30110;BME280;14965;50.660;13.226;2022-11-28T06:26:45;94787.59;;;-0.39;97.74
30110;BME280;14965;50.660;13.226;2022-11-28T06:29:12;94781.34;;;-0.43;98.17
30110;BME280;14965;50.660;13.226;2022-11-28T06:31:38;94775.88;;;-0.47;98.57
30110;BME280;14965;50.660;13.226;2022-11-28T06:34:03;94775.44;;;-0.53;98.66
30110;BME280;14965;50.660;13.226;2022-11-28T06:36:29;94772.69;;;-0.56;99.28
30110;BME280;14965;50.660;13.226;2022-11-28T06:38:55;94777.31;;;-0.57;99.61
30110;BME280;14965;50.660;13.226;2022-11-28T06:41:21;94771.13;;;-0.57;99.76
30110;BME280;14965;50.660;13.226;2022-11-28T06:43:47;94776.56;;;-0.57;100.00
30110;BME280;14965;50.660;13.226;2022-11-28T06:46:15;94771.47;;;-0.59;100.00
30110;BME280;14965;50.660;13.226;2022-11-28T06:48:41;94759.13;;;-0.56;100.00
30110;BME280;14965;50.660;13.226;2022-11-28T06:51:07;94773.06;;;-0.58;100.00
30110;BME280;14965;50.660;13.226;2022-11-28T06:53:33;94775.78;;;-0.58;100.00
30110;BME280;14965;50.660;13.226;2022-11-28T06:56:03;94775.00;;;-0.55;100.00
30110;BME280;14965;50.660;13.226;2022-11-28T06:58:29;94770.41;;;-0.54;100.00
30110;BME280;14965;50.660;13.226;2022-11-28T07:00:55;94768.84;;;-0.52;100.00
30110;BME280;14965;50.660;13.226;2022-11-28T07:03:22;94769.69;;;-0.47;100.00
30110;BME280;14965;50.660;13.226;2022-11-28T07:05:47;94770.56;;;-0.40;100.00
30110;BME280;14965;50.660;13.226;2022-11-28T07:08:13;94769.81;;;-0.37;99.85
30110;BME280;14965;50.660;13.226;2022-11-28T07:10:39;94772.09;;;-0.39;99.37
30110;BME280;14965;50.660;13.226;2022-11-28T07:13:05;94762.84;;;-0.34;99.14
30110;BME280;14965;50.660;13.226;2022-11-28T07:15:31;94767.97;;;-0.26;98.63
30110;BME280;14965;50.660;13.226;2022-11-28T07:17:56;94771.91;;;-0.23;98.44
30110;BME280;14965;50.660;13.226;2022-11-28T07:20:23;94769.19;;;-0.23;98.06
30110;BME280;14965;50.660;13.226;2022-11-28T07:22:49;94773.44;;;-0.22;97.75
30110;BME280;14965;50.660;13.226;2022-11-28T07:25:15;94767.66;;;-0.20;97.75
30110;BME280;14965;50.660;13.226;2022-11-28T07:27:41;94763.50;;;-0.11;97.38
30110;BME280;14965;50.660;13.226;2022-11-28T07:30:08;94755.75;;;-0.09;96.98
30110;BME280;14965;50.660;13.226;2022-11-28T07:32:34;94769.78;;;-0.03;97.09
30110;BME280;14965;50.660;13.226;2022-11-28T07:35:00;94771.03;;;0.07;97.42
30110;BME280;14965;50.660;13.226;2022-11-28T07:37:27;94761.41;;;0.13;96.52
30110;BME280;14965;50.660;13.226;2022-11-28T07:39:53;94754.81;;;0.14;95.85
30110;BME280;14965;50.660;13.226;2022-11-28T07:42:18;94757.22;;;0.22;96.11
30110;BME280;14965;50.660;13.226;2022-11-28T07:44:44;94749.88;;;0.27;94.90
30110;BME280;14965;50.660;13.226;2022-11-28T07:47:10;94742.41;;;0.13;94.70
30110;BME280;14965;50.660;13.226;2022-11-28T07:49:36;94729.09;;;0.01;95.32
30110;BME280;14965;50.660;13.226;2022-11-28T07:52:01;94725.53;;;-0.07;95.72
30110;BME280;14965;50.660;13.226;2022-11-28T07:54:28;94735.53;;;-0.15;96.13
30110;BME280;14965;50.660;13.226;2022-11-28T07:56:54;94730.50;;;-0.16;96.71
30110;BME280;14965;50.660;13.226;2022-11-28T07:59:20;94730.88;;;-0.14;96.95
30110;BME280;14965;50.660;13.226;2022-11-28T08:01:46;94726.22;;;-0.14;96.77
30110;BME280;14965;50.660;13.226;2022-11-28T08:04:12;94735.50;;;-0.18;95.96
30110;BME280;14965;50.660;13.226;2022-11-28T08:06:40;94734.75;;;-0.15;96.09
30110;BME280;14965;50.660;13.226;2022-11-28T08:09:06;94735.53;;;-0.15;96.30
30110;BME280;14965;50.660;13.226;2022-11-28T08:11:34;94725.41;;;-0.18;96.63
30110;BME280;14965;50.660;13.226;2022-11-28T08:14:00;94724.63;;;-0.18;97.35
30110;BME280;14965;50.660;13.226;2022-11-28T08:16:28;94720.84;;;-0.10;97.46
30110;BME280;14965;50.660;13.226;2022-11-28T08:18:54;94716.66;;;-0.01;97.34
30110;BME280;14965;50.660;13.226;2022-11-28T08:21:21;94717.47;;;0.04;96.85
30110;BME280;14965;50.660;13.226;2022-11-28T08:23:49;94710.06;;;-0.03;96.42
30110;BME280;14965;50.660;13.226;2022-11-28T08:26:15;94716.31;;;0.01;96.76
30110;BME280;14965;50.660;13.226;2022-11-28T08:28:42;94721.28;;;-0.05;96.41
30110;BME280;14965;50.660;13.226;2022-11-28T08:31:09;94721.72;;;0.01;96.31
30110;BME280;14965;50.660;13.226;2022-11-28T08:33:35;94721.41;;;0.10;95.73
30110;BME280;14965;50.660;13.226;2022-11-28T08:36:02;94726.59;;;0.26;95.88
30110;BME280;14965;50.660;13.226;2022-11-28T08:38:28;94721.25;;;0.36;95.15
30110;BME280;14965;50.660;13.226;2022-11-28T08:40:59;94725.81;;;0.29;94.24
30110;BME280;14965;50.660;13.226;2022-11-28T08:43:25;94736.75;;;0.36;94.54
30110;BME280;14965;50.660;13.226;2022-11-28T08:45:52;94726.78;;;0.51;94.12
30110;BME280;14965;50.660;13.226;2022-11-28T08:48:18;94720.63;;;0.57;92.17
30110;BME280;14965;50.660;13.226;2022-11-28T08:50:45;94719.13;;;0.63;92.03
30110;BME280;14965;50.660;13.226;2022-11-28T08:53:11;94713.69;;;0.63;91.67
30110;BME280;14965;50.660;13.226;2022-11-28T08:55:36;94709.41;;;0.66;91.31
30110;BME280;14965;50.660;13.226;2022-11-28T08:58:02;94713.34;;;0.72;91.20
30110;BME280;14965;50.660;13.226;2022-11-28T09:00:28;94713.00;;;0.81;91.44
30110;BME280;14965;50.660;13.226;2022-11-28T09:02:55;94705.97;;;0.72;90.01
30110;BME280;14965;50.660;13.226;2022-11-28T09:05:21;94714.13;;;0.72;90.95
30110;BME280;14965;50.660;13.226;2022-11-28T09:07:47;94716.91;;;0.80;91.07
30110;BME280;14965;50.660;13.226;2022-11-28T09:10:12;94727.59;;;0.58;91.49
30110;BME280;14965;50.660;13.226;2022-11-28T09:12:38;94721.34;;;0.51;91.76
30110;BME280;14965;50.660;13.226;2022-11-28T09:15:05;94719.91;;;0.67;91.72
30110;BME280;14965;50.660;13.226;2022-11-28T09:17:31;94716.47;;;0.78;91.79
30110;BME280;14965;50.660;13.226;2022-11-28T09:19:58;94716.84;;;0.72;91.37
30110;BME280;14965;50.660;13.226;2022-11-28T09:22:23;94720.03;;;0.85;91.66
30110;BME280;14965;50.660;13.226;2022-11-28T09:24:49;94716.59;;;0.99;91.49
30110;BME280;14965;50.660;13.226;2022-11-28T09:27:15;94730.66;;;1.15;91.04
30110;BME280;14965;50.660;13.226;2022-11-28T09:29:41;94714.41;;;1.26;89.78
30110;BME280;14965;50.660;13.226;2022-11-28T09:32:06;94708.22;;;1.36;89.14
30110;BME280;14965;50.660;13.226;2022-11-28T09:34:32;94710.16;;;1.36;88.81
30110;BME280;14965;50.660;13.226;2022-11-28T09:36:59;94712.53;;;1.44;89.12
30110;BME280;14965;50.660;13.226;2022-11-28T09:39:25;94723.44;;;1.52;89.09
30110;BME280;14965;50.660;13.226;2022-11-28T09:41:57;94728.88;;;1.59;88.44
30110;BME280;14965;50.660;13.226;2022-11-28T09:44:28;94709.44;;;1.57;87.70
30110;BME280;14965;50.660;13.226;2022-11-28T09:47:04;94716.09;;;1.59;88.22
30110;BME280;14965;50.660;13.226;2022-11-28T09:49:36;94720.34;;;1.57;87.42
30110;BME280;14965;50.660;13.226;2022-11-28T09:52:20;94714.13;;;1.56;87.65
30110;BME280;14965;50.660;13.226;2022-11-28T09:54:51;94716.81;;;1.53;87.63
30110;BME280;14965;50.660;13.226;2022-11-28T09:57:25;94724.63;;;1.58;88.15
30110;BME280;14965;50.660;13.226;2022-11-28T09:59:54;94711.00;;;1.47;87.46
30110;BME280;14965;50.660;13.226;2022-11-28T10:02:26;94719.13;;;1.40;87.85
30110;BME280;14965;50.660;13.226;2022-11-28T10:05:04;94700.44;;;1.35;88.12
30110;BME280;14965;50.660;13.226;2022-11-28T10:07:46;94702.34;;;1.27;88.39
30110;BME280;14965;50.660;13.226;2022-11-28T10:10:19;94700.81;;;1.26;88.89
30110;BME280;14965;50.660;13.226;2022-11-28T10:12:54;94702.34;;;1.23;88.01
30110;BME280;14965;50.660;13.226;2022-11-28T10:15:30;94708.56;;;1.24;88.76
30110;BME280;14965;50.660;13.226;2022-11-28T10:18:08;94701.16;;;1.21;88.64
30110;BME280;14965;50.660;13.226;2022-11-28T10:20:41;94682.91;;;1.25;88.46
30110;BME280;14965;50.660;13.226;2022-11-28T10:23:15;94695.38;;;1.26;88.74
30110;BME280;14965;50.660;13.226;2022-11-28T10:25:46;94684.50;;;1.33;88.76
30110;BME280;14965;50.660;13.226;2022-11-28T10:28:15;94679.47;;;1.46;88.56
30110;BME280;14965;50.660;13.226;2022-11-28T10:30:47;94679.50;;;1.49;87.69
30110;BME280;14965;50.660;13.226;2022-11-28T10:33:18;94672.88;;;1.54;88.22
30110;BME280;14965;50.660;13.226;2022-11-28T10:35:50;94671.38;;;1.60;87.96
30110;BME280;14965;50.660;13.226;2022-11-28T10:38:19;94676.03;;;1.67;87.88
30110;BME280;14965;50.660;13.226;2022-11-28T10:40:49;94668.28;;;1.72;86.95
30110;BME280;14965;50.660;13.226;2022-11-28T10:43:26;94674.50;;;1.73;86.40
30110;BME280;14965;50.660;13.226;2022-11-28T10:46:00;94670.59;;;1.74;87.20
30110;BME280;14965;50.660;13.226;2022-11-28T10:48:36;94669.06;;;1.80;86.84
30110;BME280;14965;50.660;13.226;2022-11-28T10:51:17;94679.16;;;1.83;86.22
30110;BME280;14965;50.660;13.226;2022-11-28T10:53:52;94672.94;;;1.83;86.36
30110;BME280;14965;50.660;13.226;2022-11-28T10:56:30;94679.56;;;1.85;87.17
30110;BME280;14965;50.660;13.226;2022-11-28T10:59:05;94670.22;;;1.83;86.47
30110;BME280;14965;50.660;13.226;2022-11-28T11:01:37;94682.69;;;1.77;87.19
30110;BME280;14965;50.660;13.226;2022-11-28T11:04:05;94676.44;;;1.83;87.49
30110;BME280;14965;50.660;13.226;2022-11-28T11:06:31;94673.75;;;1.76;87.38
30110;BME280;14965;50.660;13.226;2022-11-28T11:08:58;94671.00;;;1.83;88.00
30110;BME280;14965;50.660;13.226;2022-11-28T11:11:26;94689.31;;;1.93;87.65
30110;BME280;14965;50.660;13.226;2022-11-28T11:13:56;94694.00;;;1.93;87.07
30110;BME280;14965;50.660;13.226;2022-11-28T11:16:22;94692.41;;;1.95;87.64
30110;BME280;14965;50.660;13.226;2022-11-28T11:18:51;94687.75;;;2.03;87.42
30110;BME280;14965;50.660;13.226;2022-11-28T11:21:19;94685.06;;;2.10;87.03
30110;BME280;14965;50.660;13.226;2022-11-28T11:23:46;94683.47;;;2.16;86.79
30110;BME280;14965;50.660;13.226;2022-11-28T11:26:22;94680.00;;;2.19;86.78
30110;BME280;14965;50.660;13.226;2022-11-28T11:28:50;94668.31;;;2.19;86.54
30110;BME280;14965;50.660;13.226;2022-11-28T11:31:21;94676.09;;;2.20;85.92
30110;BME280;14965;50.660;13.226;2022-11-28T11:33:50;94671.81;;;2.19;86.45
30110;BME280;14965;50.660;13.226;2022-11-28T11:36:24;94665.97;;;2.24;86.40
30110;BME280;14965;50.660;13.226;2022-11-28T11:38:50;94680.00;;;2.27;86.03
30110;BME280;14965;50.660;13.226;2022-11-28T11:41:26;94680.78;;;2.27;86.34
30110;BME280;14965;50.660;13.226;2022-11-28T11:43:53;94694.78;;;2.29;86.47
30110;BME280;14965;50.660;13.226;2022-11-28T11:46:19;94690.50;;;2.32;85.58
30110;BME280;14965;50.660;13.226;2022-11-28T11:48:46;94687.00;;;2.35;85.75
30110;BME280;14965;50.660;13.226;2022-11-28T11:51:22;94682.69;;;2.34;85.59
30110;BME280;14965;50.660;13.226;2022-11-28T11:53:59;94683.50;;;2.31;85.93
30110;BME280;14965;50.660;13.226;2022-11-28T11:56:27;94687.41;;;2.26;86.24
30110;BME280;14965;50.660;13.226;2022-11-28T11:58:55;94674.91;;;2.29;85.97
30110;BME280;14965;50.660;13.226;2022-11-28T12:01:23;94673.75;;;2.30;85.90
30110;BME280;14965;50.660;13.226;2022-11-28T12:03:53;94672.97;;;2.29;85.69
30110;BME280;14965;50.660;13.226;2022-11-28T12:06:23;94668.31;;;2.19;85.25
30110;BME280;14965;50.660;13.226;2022-11-28T12:08:54;94655.09;;;2.17;85.73
30110;BME280;14965;50.660;13.226;2022-11-28T12:11:29;94667.53;;;2.18;85.75
30110;BME280;14965;50.660;13.226;2022-11-28T12:14:02;94653.91;;;2.18;85.92
30110;BME280;14965;50.660;13.226;2022-11-28T12:16:38;94655.06;;;2.21;86.09
30110;BME280;14965;50.660;13.226;2022-11-28T12:19:17;94663.25;;;2.24;85.55
30110;BME280;14965;50.660;13.226;2022-11-28T12:22:00;94661.69;;;2.23;85.13
30110;BME280;14965;50.660;13.226;2022-11-28T12:24:32;94657.03;;;2.24;85.40
30110;BME280;14965;50.660;13.226;2022-11-28T12:27:08;94654.31;;;2.28;85.16
30110;BME280;14965;50.660;13.226;2022-11-28T12:29:45;94655.84;;;2.29;84.84
30110;BME280;14965;50.660;13.226;2022-11-28T12:32:23;94654.31;;;2.31;84.95
30110;BME280;14965;50.660;13.226;2022-11-28T12:35:02;94653.91;;;2.29;85.29
30110;BME280;14965;50.660;13.226;2022-11-28T12:37:39;94653.91;;;2.25;85.00
30110;BME280;14965;50.660;13.226;2022-11-28T12:40:15;94645.72;;;2.25;85.24
30110;BME280;14965;50.660;13.226;2022-11-28T12:42:54;94642.22;;;2.25;85.35
30110;BME280;14965;50.660;13.226;2022-11-28T12:45:33;94642.63;;;2.23;84.73
30110;BME280;14965;50.660;13.226;2022-11-28T12:48:11;94642.63;;;2.23;85.23
30110;BME280;14965;50.660;13.226;2022-11-28T12:50:41;94635.63;;;2.22;85.11
30110;BME280;14965;50.660;13.226;2022-11-28T12:53:41;94636.41;;;2.19;85.46
30110;BME280;14965;50.660;13.226;2022-11-28T12:56:24;94633.31;;;2.17;85.75
30110;BME280;14965;50.660;13.226;2022-11-28T12:59:00;94629.00;;;2.20;85.62
30110;BME280;14965;50.660;13.226;2022-11-28T13:01:36;94638.75;;;2.17;84.82
30110;BME280;14965;50.660;13.226;2022-11-28T13:04:20;94642.63;;;2.20;85.02
30110;BME280;14965;50.660;13.226;2022-11-28T13:07:00;94644.56;;;2.19;85.87
30110;BME280;14965;50.660;13.226;2022-11-28T13:09:30;94639.13;;;2.19;85.70
30110;BME280;14965;50.660;13.226;2022-11-28T13:12:06;94648.06;;;2.16;85.32
30110;BME280;14965;50.660;13.226;2022-11-28T13:14:48;94645.38;;;2.09;85.70